createdAt,value
2022-08-05T00:01:35.602Z,25.70
2022-08-05T00:04:16.734Z,25.60
2022-08-05T00:06:47.119Z,25.60
2022-08-05T00:09:21.036Z,25.50
2022-08-05T00:11:55.618Z,25.50
2022-08-05T00:14:29.227Z,25.40
2022-08-05T00:16:58.009Z,25.30
2022-08-05T00:19:33.337Z,25.30
2022-08-05T00:22:11.065Z,25.30
2022-08-05T00:24:42.157Z,25.20
2022-08-05T00:27:16.794Z,25.20
2022-08-05T00:29:45.068Z,25.20
2022-08-05T00:32:15.473Z,25.20
2022-08-05T00:35:03.456Z,25.20
2022-08-05T00:37:51.376Z,25.20
2022-08-05T00:40:26.827Z,25.20
2022-08-05T00:42:57.897Z,25.20
2022-08-05T00:45:38.014Z,25.20
2022-08-05T00:48:12.170Z,25.10
2022-08-05T00:50:44.153Z,25.10
2022-08-05T00:54:00.643Z,25.10
2022-08-05T00:56:02.561Z,25.00
2022-08-05T00:58:30.667Z,25.10
2022-08-05T01:00:58.994Z,25.00
2022-08-05T01:03:31.101Z,25.00
2022-08-05T01:06:02.611Z,25.00
2022-08-05T01:08:42.951Z,24.90
2022-08-05T01:11:22.089Z,24.80
2022-08-05T01:14:08.473Z,24.80
2022-08-05T01:16:44.135Z,24.80
2022-08-05T01:19:56.547Z,24.70
2022-08-05T01:22:45.312Z,24.70
2022-08-05T01:25:40.999Z,24.70
2022-08-05T01:28:25.879Z,24.70
2022-08-05T01:30:58.060Z,24.70
2022-08-05T01:33:35.326Z,24.70
2022-08-05T01:36:13.229Z,24.70
2022-08-05T01:38:45.778Z,24.60
2022-08-05T01:41:20.983Z,24.60
2022-08-05T01:43:52.287Z,24.50
2022-08-05T01:46:42.019Z,24.50
2022-08-05T01:49:23.840Z,24.30
2022-08-05T01:51:58.392Z,24.30
2022-08-05T01:54:31.215Z,24.40
2022-08-05T01:58:10.035Z,24.40
2022-08-05T01:59:53.651Z,24.40
2022-08-05T02:02:28.464Z,24.30
2022-08-05T02:05:01.412Z,24.30
2022-08-05T02:07:32.135Z,24.10
2022-08-05T02:10:02.206Z,24.20
2022-08-05T02:12:41.058Z,24.30
2022-08-05T02:15:14.734Z,24.20
2022-08-05T02:18:30.759Z,24.30
2022-08-05T02:20:46.955Z,24.20
2022-08-05T02:23:18.758Z,24.20
2022-08-05T02:25:49.166Z,24.20
2022-08-05T02:28:29.067Z,24.20
2022-08-05T02:31:04.306Z,24.20
2022-08-05T02:33:38.925Z,24.20
2022-08-05T02:36:13.716Z,24.20
2022-08-05T02:38:53.523Z,24.20
2022-08-05T02:41:28.909Z,24.20
2022-08-05T02:44:13.505Z,24.20
2022-08-05T02:46:59.889Z,24.20
2022-08-05T02:49:36.048Z,24.10
2022-08-05T02:52:11.437Z,24.10
2022-08-05T02:54:42.786Z,24.10
2022-08-05T02:58:10.840Z,24.10
2022-08-05T03:00:12.691Z,24.00
2022-08-05T03:02:44.976Z,24.00
2022-08-05T03:05:15.056Z,24.00
2022-08-05T03:08:00.559Z,24.00
2022-08-05T03:10:32.673Z,23.90
2022-08-05T03:15:28.575Z,23.90
2022-08-05T03:17:59.484Z,23.80
2022-08-05T03:20:27.669Z,23.80
2022-08-05T03:22:58.042Z,23.80
2022-08-05T03:25:32.463Z,23.80
2022-08-05T03:28:03.384Z,23.80
2022-08-05T03:30:34.149Z,23.70
2022-08-05T03:33:06.302Z,23.70
2022-08-05T03:35:41.130Z,23.70
2022-08-05T03:38:11.808Z,23.60
2022-08-05T03:40:45.304Z,23.60
2022-08-05T03:44:08.996Z,23.70
2022-08-05T03:46:08.299Z,23.60
2022-08-05T03:48:37.820Z,23.60
2022-08-05T03:52:48.930Z,23.60
2022-08-05T03:56:01.562Z,23.70
2022-08-05T03:56:58.895Z,23.70
2022-08-05T03:59:46.763Z,23.60
2022-08-05T04:02:38.487Z,23.50
2022-08-05T04:05:10.371Z,23.40
2022-08-05T04:07:57.564Z,23.40
2022-08-05T04:10:27.530Z,23.30
2022-08-05T04:12:58.735Z,23.40
2022-08-05T04:15:27.980Z,23.50
2022-08-05T04:18:07.247Z,23.60
2022-08-05T04:20:37.646Z,23.60
2022-08-05T04:23:12.650Z,23.60
2022-08-05T04:25:57.276Z,23.60
2022-08-05T04:28:31.001Z,23.60
2022-08-05T04:31:00.804Z,23.50
2022-08-05T04:34:18.103Z,23.50
2022-08-05T04:36:46.241Z,23.50
2022-08-05T04:39:07.497Z,23.50
2022-08-05T04:41:36.930Z,23.50
2022-08-05T04:44:09.348Z,23.50
2022-08-05T04:46:38.735Z,23.50
2022-08-05T04:49:12.309Z,23.50
2022-08-05T04:51:44.732Z,23.60
2022-08-05T04:54:14.691Z,23.50
2022-08-05T04:56:43.687Z,23.50
2022-08-05T04:59:21.490Z,23.50
2022-08-05T05:02:07.155Z,23.20
2022-08-05T05:04:43.867Z,23.10
2022-08-05T05:07:17.482Z,23.00
2022-08-05T05:09:45.659Z,23.10
2022-08-05T05:12:13.753Z,23.20
2022-08-05T05:14:49.578Z,23.30
2022-08-05T05:17:23.911Z,23.40
2022-08-05T05:19:56.685Z,23.50
2022-08-05T05:22:26.979Z,23.60
2022-08-05T05:24:58.354Z,23.70
2022-08-05T05:27:44.309Z,23.70
2022-08-05T05:30:30.802Z,23.70
2022-08-05T05:33:03.909Z,23.70
2022-08-05T05:35:44.773Z,23.70
2022-08-05T05:38:14.824Z,23.80
2022-08-05T05:40:51.547Z,23.70
2022-08-05T05:43:27.918Z,23.80
2022-08-05T05:46:15.673Z,23.90
2022-08-05T05:48:46.308Z,23.90
2022-08-05T05:51:21.336Z,23.90
2022-08-05T05:53:57.392Z,23.90
2022-08-05T05:56:31.660Z,23.90
2022-08-05T05:59:05.113Z,24.00
2022-08-05T06:01:38.131Z,24.00
2022-08-05T06:04:12.196Z,24.10
2022-08-05T06:06:42.643Z,24.10
2022-08-05T06:09:17.485Z,24.10
2022-08-05T06:12:01.908Z,24.10
2022-08-05T06:14:31.491Z,24.20
2022-08-05T06:17:02.021Z,24.10
2022-08-05T06:19:56.775Z,23.90
2022-08-05T06:22:29.571Z,23.90
2022-08-05T06:24:59.376Z,23.80
2022-08-05T06:28:11.135Z,23.80
2022-08-05T06:30:20.153Z,23.70
2022-08-05T06:32:50.729Z,23.70
2022-08-05T06:36:03.702Z,23.80
2022-08-05T06:38:11.759Z,23.90
2022-08-05T06:40:44.487Z,23.90
2022-08-05T06:43:58.489Z,24.10
2022-08-05T06:46:06.551Z,24.20
2022-08-05T06:48:52.830Z,24.30
2022-08-05T06:51:29.716Z,24.40
2022-08-05T06:53:59.025Z,24.40
2022-08-05T06:56:28.649Z,24.40
2022-08-05T06:58:56.705Z,24.50
2022-08-05T07:01:31.985Z,24.50
2022-08-05T07:04:02.297Z,24.60
2022-08-05T07:06:32.018Z,24.60
2022-08-05T07:09:04.357Z,24.70
2022-08-05T07:11:36.906Z,24.70
2022-08-05T07:14:30.179Z,24.80
2022-08-05T07:18:01.761Z,24.90
2022-08-05T07:22:42.450Z,25.00
2022-08-05T07:25:54.805Z,25.10
2022-08-05T07:28:05.935Z,25.10
2022-08-05T07:30:39.836Z,25.20
2022-08-05T07:33:16.812Z,25.20
2022-08-05T07:36:04.527Z,25.30
2022-08-05T07:38:42.807Z,25.40
2022-08-05T07:42:08.072Z,25.40
2022-08-05T07:44:19.315Z,25.50
2022-08-05T07:46:50.607Z,25.50
2022-08-05T07:49:20.511Z,25.60
2022-08-05T07:51:54.206Z,25.60
2022-08-05T07:54:30.806Z,25.70
2022-08-05T07:57:41.800Z,25.80
2022-08-05T07:59:51.275Z,25.80
2022-08-05T08:02:19.422Z,25.80
2022-08-05T08:04:54.837Z,25.90
2022-08-05T08:07:23.493Z,26.00
2022-08-05T08:09:55.101Z,26.00
2022-08-05T08:12:33.409Z,26.10
2022-08-05T08:15:09.727Z,26.10
2022-08-05T08:17:44.001Z,26.20
2022-08-05T08:20:42.588Z,26.30
2022-08-05T08:23:07.553Z,26.30
2022-08-05T08:26:00.393Z,26.40
2022-08-05T08:28:36.746Z,26.40
2022-08-05T08:31:21.743Z,26.50
2022-08-05T08:33:51.580Z,26.50
2022-08-05T08:36:39.240Z,26.60
2022-08-05T08:39:15.648Z,26.70
2022-08-05T08:41:52.697Z,26.70
2022-08-05T08:45:16.839Z,26.80
2022-08-05T08:48:06.179Z,26.80
2022-08-05T08:50:31.212Z,26.90
2022-08-05T08:53:07.907Z,27.00
2022-08-05T08:56:03.653Z,27.00
2022-08-05T08:58:37.547Z,27.10
2022-08-05T09:01:15.838Z,27.10
2022-08-05T09:03:55.300Z,27.10
2022-08-05T09:06:29.344Z,27.20
2022-08-05T09:08:59.560Z,27.20
2022-08-05T09:11:52.941Z,27.30
2022-08-05T09:14:58.677Z,27.30
2022-08-05T09:17:08.051Z,27.40
2022-08-05T09:19:55.394Z,27.50
2022-08-05T09:22:32.011Z,27.60
2022-08-05T09:25:13.782Z,27.60
2022-08-05T09:28:03.800Z,27.70
2022-08-05T09:30:35.229Z,27.80
2022-08-05T09:33:05.446Z,27.90
2022-08-05T09:35:34.963Z,27.90
2022-08-05T09:38:16.304Z,28.00
2022-08-05T09:40:53.929Z,28.10
2022-08-05T09:43:40.578Z,28.20
2022-08-05T09:46:27.249Z,28.20
2022-08-05T09:49:06.754Z,28.30
2022-08-05T09:51:40.000Z,28.30
2022-08-05T09:54:10.059Z,28.40
2022-08-05T09:56:40.477Z,28.50
2022-08-05T09:59:19.760Z,28.50
2022-08-05T10:01:48.387Z,28.60
2022-08-05T10:04:38.516Z,28.60
2022-08-05T10:07:21.082Z,28.70
2022-08-05T10:10:14.403Z,28.70
2022-08-05T10:12:49.768Z,28.80
2022-08-05T10:15:21.578Z,28.80
2022-08-05T10:18:08.811Z,28.90
2022-08-05T10:20:40.082Z,28.90
2022-08-05T10:23:34.264Z,29.00
2022-08-05T10:26:01.964Z,29.00
2022-08-05T10:28:33.716Z,29.10
2022-08-05T10:32:49.648Z,29.20
2022-08-05T10:33:54.262Z,29.20
2022-08-05T10:36:23.572Z,29.30
2022-08-05T10:39:04.990Z,29.30
2022-08-05T10:41:44.869Z,29.40
2022-08-05T10:44:19.302Z,29.40
2022-08-05T10:46:50.967Z,29.40
2022-08-05T10:49:26.593Z,29.40
2022-08-05T10:52:00.180Z,29.50
2022-08-05T10:54:56.318Z,29.50
2022-08-05T10:57:31.992Z,29.50
2022-08-05T11:00:19.568Z,29.60
2022-08-05T11:03:25.434Z,29.70
2022-08-05T11:06:16.055Z,29.70
2022-08-05T11:09:32.115Z,29.80
2022-08-05T11:12:45.335Z,29.80
2022-08-05T11:15:22.379Z,29.90
2022-08-05T11:17:59.953Z,30.00
2022-08-05T11:20:46.214Z,30.00
2022-08-05T11:24:03.784Z,30.10
2022-08-05T11:26:32.077Z,30.10
2022-08-05T11:29:13.983Z,30.10
2022-08-05T11:31:56.968Z,30.20
2022-08-05T11:34:50.858Z,30.20
2022-08-05T11:38:30.350Z,30.30
2022-08-05T11:41:35.578Z,30.30
2022-08-05T11:44:04.763Z,30.40
2022-08-05T11:46:36.873Z,30.50
2022-08-05T11:49:10.028Z,30.50
2022-08-05T11:51:43.721Z,30.60
2022-08-05T11:54:33.674Z,30.60
2022-08-05T11:57:08.418Z,30.70
2022-08-05T11:59:54.758Z,30.70
2022-08-05T12:02:30.134Z,30.80
2022-08-05T12:05:06.884Z,30.80
2022-08-05T12:08:10.443Z,30.90
2022-08-05T12:10:42.883Z,30.90
2022-08-05T12:13:28.009Z,30.90
2022-08-05T12:16:14.693Z,31.00
2022-08-05T12:18:52.466Z,31.10
2022-08-05T12:21:26.788Z,31.10
2022-08-05T12:24:06.896Z,31.20
2022-08-05T12:26:36.442Z,31.20
2022-08-05T12:29:09.842Z,31.20
2022-08-05T12:31:53.555Z,31.30
2022-08-05T12:34:24.027Z,31.30
2022-08-05T12:36:57.420Z,31.40
2022-08-05T12:39:28.172Z,31.40
2022-08-05T12:42:14.665Z,31.50
2022-08-05T12:44:44.567Z,31.60
2022-08-05T12:47:17.175Z,31.60
2022-08-05T12:50:03.389Z,31.70
2022-08-05T12:52:41.610Z,31.70
2022-08-05T12:55:21.967Z,31.70
2022-08-05T12:58:52.426Z,31.70
2022-08-05T13:02:04.265Z,31.80
2022-08-05T13:03:33.423Z,31.80
2022-08-05T13:06:03.006Z,31.90
2022-08-05T13:08:32.992Z,31.90
2022-08-05T13:11:02.434Z,31.90
2022-08-05T13:14:04.639Z,32.00
2022-08-05T13:16:25.128Z,32.10
2022-08-05T13:18:58.875Z,32.10
2022-08-05T13:21:28.515Z,32.10
2022-08-05T13:24:08.930Z,32.10
2022-08-05T13:26:41.655Z,32.10
2022-08-05T13:29:37.573Z,32.20
2022-08-05T13:32:06.704Z,32.20
2022-08-05T13:34:35.224Z,32.30
2022-08-05T13:37:07.331Z,32.30
2022-08-05T13:40:13.838Z,32.30
2022-08-05T13:42:27.281Z,32.30
2022-08-05T13:44:56.379Z,32.50
2022-08-05T13:47:35.809Z,32.50
2022-08-05T13:50:16.905Z,32.60
2022-08-05T13:52:45.285Z,32.60
2022-08-05T13:55:40.918Z,32.70
2022-08-05T13:58:07.548Z,32.70
2022-08-05T14:00:39.431Z,32.70
2022-08-05T14:03:09.822Z,32.80
2022-08-05T14:06:04.922Z,32.80
2022-08-05T14:08:27.656Z,32.90
2022-08-05T14:11:20.623Z,32.90
2022-08-05T14:13:54.930Z,32.90
2022-08-05T14:16:26.044Z,33.00
2022-08-05T14:18:54.144Z,33.00
2022-08-05T14:22:08.545Z,33.10
2022-08-05T14:24:12.309Z,33.10
2022-08-05T14:27:08.571Z,33.20
2022-08-05T14:29:31.287Z,33.40
2022-08-05T14:32:02.558Z,33.70
2022-08-05T14:34:40.443Z,34.20
2022-08-05T14:37:08.806Z,35.10
2022-08-05T14:39:49.442Z,36.00
2022-08-05T14:42:26.229Z,36.80
2022-08-05T14:44:54.367Z,37.50
2022-08-05T14:48:02.724Z,38.10
2022-08-05T14:50:18.454Z,38.40
2022-08-05T14:52:58.349Z,38.70
2022-08-05T14:55:38.501Z,39.00
2022-08-05T14:58:13.704Z,39.20
2022-08-05T15:00:58.476Z,39.20
2022-08-05T15:03:39.141Z,39.30
2022-08-05T15:06:14.901Z,39.40
2022-08-05T15:08:59.654Z,39.50
2022-08-05T15:11:52.642Z,39.70
2022-08-05T15:14:35.083Z,39.90
2022-08-05T15:17:45.059Z,40.00
2022-08-05T15:19:58.310Z,39.90
2022-08-05T15:22:27.871Z,39.90
2022-08-05T15:24:59.370Z,39.90
2022-08-05T15:27:32.233Z,40.00
2022-08-05T15:30:06.599Z,39.80
2022-08-05T15:32:34.803Z,39.50
2022-08-05T15:35:10.575Z,39.30
2022-08-05T15:38:33.475Z,39.10
2022-08-05T15:40:58.793Z,39.10
2022-08-05T15:43:20.212Z,37.80
2022-08-05T15:46:00.123Z,36.20
2022-08-05T15:48:29.997Z,35.50
2022-08-05T15:51:03.302Z,34.90
2022-08-05T15:53:38.300Z,34.30
2022-08-05T15:56:18.884Z,34.20
2022-08-05T15:58:47.450Z,34.00
2022-08-05T16:01:18.136Z,33.90
2022-08-05T16:03:48.393Z,33.60
2022-08-05T16:06:19.610Z,33.50
2022-08-05T16:08:51.386Z,33.40
2022-08-05T16:11:42.508Z,33.00
2022-08-05T16:14:17.265Z,32.60
2022-08-05T16:16:47.281Z,32.30
2022-08-05T16:19:18.928Z,32.10
2022-08-05T16:22:01.195Z,31.90
2022-08-05T16:24:41.897Z,31.60
2022-08-05T16:27:32.262Z,31.50
2022-08-05T16:30:23.348Z,31.20
2022-08-05T16:32:56.116Z,31.10
2022-08-05T16:35:27.806Z,31.20
2022-08-05T16:38:11.925Z,30.70
2022-08-05T16:40:52.024Z,30.50
2022-08-05T16:43:25.037Z,30.30
2022-08-05T16:46:06.893Z,30.00
2022-08-05T16:48:39.393Z,29.50
2022-08-05T16:51:10.052Z,29.10
2022-08-05T16:54:03.141Z,28.90
2022-08-05T16:56:29.430Z,28.60
2022-08-05T16:58:58.220Z,28.40
2022-08-05T17:01:27.021Z,28.30
2022-08-05T17:04:16.462Z,28.20
2022-08-05T17:06:53.166Z,28.20
2022-08-05T17:09:23.054Z,28.20
2022-08-05T17:11:56.003Z,28.10
2022-08-05T17:14:37.137Z,28.00
2022-08-05T17:17:14.238Z,27.80
2022-08-05T17:19:46.113Z,27.80
2022-08-05T17:22:25.022Z,28.00
2022-08-05T17:24:56.872Z,28.30
2022-08-05T17:27:34.344Z,28.50
2022-08-05T17:30:03.389Z,28.60
2022-08-05T17:32:33.709Z,28.40
2022-08-05T17:35:04.267Z,28.50
2022-08-05T17:37:41.948Z,28.40
2022-08-05T17:40:15.939Z,28.10
2022-08-05T17:42:51.930Z,27.80
2022-08-05T17:45:22.395Z,27.70
2022-08-05T17:47:56.050Z,27.60
2022-08-05T17:50:28.517Z,27.50
2022-08-05T17:53:00.021Z,27.40
2022-08-05T17:55:38.388Z,27.10
2022-08-05T17:58:13.778Z,27.00
2022-08-05T18:00:47.797Z,26.90
2022-08-05T18:03:56.538Z,27.00
2022-08-05T18:06:11.915Z,27.00
2022-08-05T18:08:44.814Z,27.10
2022-08-05T18:11:23.329Z,27.10
2022-08-05T18:13:54.909Z,27.00
2022-08-05T18:16:23.600Z,26.90
2022-08-05T18:18:51.694Z,26.90
2022-08-05T18:21:22.893Z,26.40
2022-08-05T18:23:54.868Z,26.10
2022-08-05T18:26:27.593Z,26.00
2022-08-05T18:28:57.470Z,25.90
2022-08-05T18:31:25.830Z,26.20
2022-08-05T18:34:02.260Z,26.40
2022-08-05T18:36:31.885Z,26.30
2022-08-05T18:38:59.958Z,26.10
2022-08-05T18:41:54.956Z,26.10
2022-08-05T18:44:33.360Z,26.20
2022-08-05T18:47:04.958Z,26.20
2022-08-05T18:49:58.422Z,26.20
2022-08-05T18:52:50.840Z,26.00
2022-08-05T18:55:21.572Z,25.80
2022-08-05T18:57:53.838Z,25.80
2022-08-05T19:00:29.110Z,26.00
2022-08-05T19:03:04.262Z,26.10
2022-08-05T19:06:13.002Z,26.20
2022-08-05T19:08:30.467Z,25.90
2022-08-05T19:11:04.656Z,26.10
2022-08-05T19:13:35.732Z,26.00
2022-08-05T19:16:05.302Z,25.70
2022-08-05T19:18:53.945Z,25.80
2022-08-05T19:21:26.097Z,25.70
2022-08-05T19:24:07.164Z,25.70
2022-08-05T19:26:54.275Z,25.50
2022-08-05T19:29:26.764Z,25.70
2022-08-05T19:32:05.439Z,25.70
2022-08-05T19:34:36.898Z,25.60
2022-08-05T19:37:06.703Z,25.60
2022-08-05T19:39:45.685Z,25.30
2022-08-05T19:42:19.458Z,25.40
2022-08-05T19:45:05.749Z,25.60
2022-08-05T19:47:34.570Z,25.50
2022-08-05T19:50:07.907Z,25.60
2022-08-05T19:52:40.692Z,25.70
2022-08-05T19:56:14.416Z,25.60
2022-08-05T19:58:14.464Z,25.50
2022-08-05T20:00:47.857Z,25.40
2022-08-05T20:03:16.105Z,25.20
2022-08-05T20:05:51.312Z,25.10
2022-08-05T20:08:20.308Z,25.10
2022-08-05T20:10:50.009Z,25.10
2022-08-05T20:13:30.033Z,25.10
2022-08-05T20:16:07.800Z,25.20
2022-08-05T20:18:37.096Z,25.10
2022-08-05T20:21:06.568Z,25.10
2022-08-05T20:23:40.122Z,25.00
2022-08-05T20:26:21.649Z,25.00
2022-08-05T20:28:55.632Z,24.60
2022-08-05T20:31:37.313Z,24.10
2022-08-05T20:34:14.085Z,23.80
2022-08-05T20:36:43.828Z,23.60
2022-08-05T20:39:13.019Z,24.10
2022-08-05T20:41:45.049Z,24.30
2022-08-05T20:44:17.743Z,24.50
2022-08-05T20:46:52.751Z,24.60
2022-08-05T20:49:24.576Z,24.70
2022-08-05T20:51:54.614Z,24.80
2022-08-05T20:54:43.631Z,24.80
2022-08-05T20:57:42.628Z,24.80
2022-08-05T21:00:20.787Z,24.80
2022-08-05T21:03:01.186Z,24.70
2022-08-05T21:05:47.665Z,24.70
2022-08-05T21:08:17.961Z,24.60
2022-08-05T21:10:48.583Z,24.60
2022-08-05T21:13:26.567Z,24.60
2022-08-05T21:16:08.557Z,24.70
2022-08-05T21:18:36.683Z,24.50
2022-08-05T21:21:05.329Z,24.50
2022-08-05T21:23:37.031Z,24.30
2022-08-05T21:26:08.107Z,24.30
2022-08-05T21:28:47.939Z,24.10
2022-08-05T21:31:19.101Z,24.00
2022-08-05T21:33:49.777Z,24.00
2022-08-05T21:36:29.989Z,24.20
2022-08-05T21:39:01.127Z,24.40
2022-08-05T21:41:34.225Z,24.60
2022-08-05T21:44:05.855Z,24.60
2022-08-05T21:46:34.857Z,24.60
2022-08-05T21:49:07.290Z,24.60
2022-08-05T21:52:27.156Z,24.70
2022-08-05T21:54:27.983Z,24.60
2022-08-05T21:57:29.644Z,24.60
2022-08-05T22:00:10.701Z,24.60
2022-08-05T22:02:39.386Z,24.50
2022-08-05T22:05:15.167Z,24.50
2022-08-05T22:07:58.904Z,24.40
2022-08-05T22:10:28.318Z,24.40
2022-08-05T22:12:58.720Z,24.40
2022-08-05T22:16:01.703Z,24.40
2022-08-05T22:18:19.591Z,24.40
2022-08-05T22:20:55.089Z,24.30
2022-08-05T22:24:03.201Z,24.30
2022-08-05T22:26:49.864Z,24.30
2022-08-05T22:29:26.259Z,24.40
2022-08-05T22:31:59.593Z,24.30
2022-08-05T22:34:35.748Z,24.30
2022-08-05T22:37:08.258Z,24.30
2022-08-05T22:39:42.797Z,24.30
2022-08-05T22:42:26.122Z,24.30
2022-08-05T22:44:56.794Z,24.30
2022-08-05T22:47:29.365Z,24.30
2022-08-05T22:50:19.698Z,24.40
2022-08-05T22:52:48.114Z,24.30
2022-08-05T22:55:19.608Z,24.30
2022-08-05T22:57:49.333Z,24.20
2022-08-05T23:00:20.821Z,24.20
2022-08-05T23:02:52.161Z,24.10
2022-08-05T23:05:21.902Z,24.10
2022-08-05T23:07:51.196Z,24.10
2022-08-05T23:10:20.822Z,24.10
2022-08-05T23:12:55.013Z,24.10
2022-08-05T23:15:27.047Z,24.10
2022-08-05T23:18:03.548Z,24.10
2022-08-05T23:20:37.236Z,24.10
2022-08-05T23:23:08.697Z,24.00
2022-08-05T23:25:51.688Z,23.70
2022-08-05T23:28:27.637Z,23.30
2022-08-05T23:31:16.444Z,22.90
2022-08-05T23:34:04.199Z,22.80
2022-08-05T23:36:39.866Z,23.00
2022-08-05T23:39:17.097Z,23.10
2022-08-05T23:41:52.064Z,23.30
2022-08-05T23:44:25.011Z,23.40
2022-08-05T23:46:56.095Z,23.30
2022-08-05T23:49:35.702Z,23.10
2022-08-05T23:52:22.129Z,23.00
2022-08-05T23:54:54.731Z,23.30
2022-08-05T23:57:24.575Z,23.40
